sensor_id;sensor_type;location;lat;lon;timestamp;P1;durP1;ratioP1;P2;durP2;ratioP2
75854;SDS011;64502;59.976;30.316;2023-04-15T00:00:25;2.90;;;0.80;;
75854;SDS011;64502;59.976;30.316;2023-04-15T00:02:50;2.85;;;0.73;;
75854;SDS011;64502;59.976;30.316;2023-04-15T00:05:17;2.03;;;0.80;;
75854;SDS011;64502;59.976;30.316;2023-04-15T00:07:42;3.42;;;0.70;;
75854;SDS011;64502;59.976;30.316;2023-04-15T00:10:09;2.40;;;0.82;;
75854;SDS011;64502;59.976;30.316;2023-04-15T00:12:34;2.92;;;0.85;;
75854;SDS011;64502;59.976;30.316;2023-04-15T00:15:00;2.08;;;0.52;;
75854;SDS011;64502;59.976;30.316;2023-04-15T00:17:26;2.95;;;1.00;;
75854;SDS011;64502;59.976;30.316;2023-04-15T00:19:52;2.53;;;0.77;;
75854;SDS011;64502;59.976;30.316;2023-04-15T00:22:18;2.88;;;0.60;;
75854;SDS011;64502;59.976;30.316;2023-04-15T00:24:43;5.18;;;0.98;;
75854;SDS011;64502;59.976;30.316;2023-04-15T00:27:09;4.10;;;0.90;;
75854;SDS011;64502;59.976;30.316;2023-04-15T00:29:35;3.90;;;0.70;;
75854;SDS011;64502;59.976;30.316;2023-04-15T00:32:01;2.00;;;0.80;;
75854;SDS011;64502;59.976;30.316;2023-04-15T00:34:26;6.93;;;1.02;;
75854;SDS011;64502;59.976;30.316;2023-04-15T00:36:53;3.38;;;0.82;;
75854;SDS011;64502;59.976;30.316;2023-04-15T00:39:18;1.98;;;0.82;;
75854;SDS011;64502;59.976;30.316;2023-04-15T00:41:45;1.92;;;0.73;;
75854;SDS011;64502;59.976;30.316;2023-04-15T00:44:10;4.78;;;0.95;;
75854;SDS011;64502;59.976;30.316;2023-04-15T00:46:36;1.65;;;0.55;;
75854;SDS011;64502;59.976;30.316;2023-04-15T00:49:03;2.25;;;0.75;;
75854;SDS011;64502;59.976;30.316;2023-04-15T00:51:30;7.00;;;1.05;;
75854;SDS011;64502;59.976;30.316;2023-04-15T00:53:58;4.68;;;0.90;;
75854;SDS011;64502;59.976;30.316;2023-04-15T00:56:24;1.95;;;0.45;;
75854;SDS011;64502;59.976;30.316;2023-04-15T00:58:52;3.60;;;0.95;;
75854;SDS011;64502;59.976;30.316;2023-04-15T01:01:21;3.38;;;0.85;;
75854;SDS011;64502;59.976;30.316;2023-04-15T01:03:49;2.28;;;0.60;;
75854;SDS011;64502;59.976;30.316;2023-04-15T01:06:16;3.08;;;0.68;;
75854;SDS011;64502;59.976;30.316;2023-04-15T01:08:42;3.03;;;0.57;;
75854;SDS011;64502;59.976;30.316;2023-04-15T01:11:08;1.20;;;0.20;;
75854;SDS011;64502;59.976;30.316;2023-04-15T01:13:36;4.18;;;0.60;;
75854;SDS011;64502;59.976;30.316;2023-04-15T01:16:02;2.40;;;0.93;;
75854;SDS011;64502;59.976;30.316;2023-04-15T01:18:27;3.40;;;0.65;;
75854;SDS011;64502;59.976;30.316;2023-04-15T01:20:53;2.30;;;0.98;;
75854;SDS011;64502;59.976;30.316;2023-04-15T01:23:22;2.85;;;0.95;;
75854;SDS011;64502;59.976;30.316;2023-04-15T01:25:48;2.53;;;0.95;;
75854;SDS011;64502;59.976;30.316;2023-04-15T01:28:15;4.60;;;1.17;;
75854;SDS011;64502;59.976;30.316;2023-04-15T01:30:41;3.03;;;0.40;;
75854;SDS011;64502;59.976;30.316;2023-04-15T01:33:07;3.60;;;0.80;;
75854;SDS011;64502;59.976;30.316;2023-04-15T01:35:32;1.38;;;0.55;;
75854;SDS011;64502;59.976;30.316;2023-04-15T01:38:05;2.08;;;1.00;;
75854;SDS011;64502;59.976;30.316;2023-04-15T01:40:32;2.72;;;0.80;;
75854;SDS011;64502;59.976;30.316;2023-04-15T01:42:59;1.95;;;0.63;;
75854;SDS011;64502;59.976;30.316;2023-04-15T01:45:25;1.92;;;0.70;;
75854;SDS011;64502;59.976;30.316;2023-04-15T01:47:51;3.05;;;0.80;;
75854;SDS011;64502;59.976;30.316;2023-04-15T01:50:16;3.40;;;0.90;;
75854;SDS011;64502;59.976;30.316;2023-04-15T01:52:43;3.28;;;0.70;;
75854;SDS011;64502;59.976;30.316;2023-04-15T01:55:09;4.18;;;1.35;;
75854;SDS011;64502;59.976;30.316;2023-04-15T01:57:34;3.03;;;1.00;;
75854;SDS011;64502;59.976;30.316;2023-04-15T02:00:01;3.53;;;0.82;;
75854;SDS011;64502;59.976;30.316;2023-04-15T02:02:26;2.72;;;1.00;;
75854;SDS011;64502;59.976;30.316;2023-04-15T02:04:52;2.08;;;0.35;;
75854;SDS011;64502;59.976;30.316;2023-04-15T02:07:17;2.45;;;0.77;;
75854;SDS011;64502;59.976;30.316;2023-04-15T02:09:43;3.42;;;0.80;;
75854;SDS011;64502;59.976;30.316;2023-04-15T02:12:10;2.38;;;0.60;;
75854;SDS011;64502;59.976;30.316;2023-04-15T02:14:35;2.50;;;0.73;;
75854;SDS011;64502;59.976;30.316;2023-04-15T02:17:01;3.72;;;1.27;;
75854;SDS011;64502;59.976;30.316;2023-04-15T02:19:31;1.58;;;0.63;;
75854;SDS011;64502;59.976;30.316;2023-04-15T02:21:57;2.50;;;0.70;;
75854;SDS011;64502;59.976;30.316;2023-04-15T02:24:24;2.35;;;0.98;;
75854;SDS011;64502;59.976;30.316;2023-04-15T02:26:49;3.95;;;1.30;;
75854;SDS011;64502;59.976;30.316;2023-04-15T02:29:15;2.30;;;0.57;;
75854;SDS011;64502;59.976;30.316;2023-04-15T02:31:40;4.68;;;0.70;;
75854;SDS011;64502;59.976;30.316;2023-04-15T02:34:07;2.03;;;1.45;;
75854;SDS011;64502;59.976;30.316;2023-04-15T02:36:33;3.03;;;0.75;;
75854;SDS011;64502;59.976;30.316;2023-04-15T02:38:58;1.67;;;0.60;;
75854;SDS011;64502;59.976;30.316;2023-04-15T02:41:24;3.13;;;0.60;;
75854;SDS011;64502;59.976;30.316;2023-04-15T02:43:52;2.47;;;0.75;;
75854;SDS011;64502;59.976;30.316;2023-04-15T02:46:18;2.88;;;0.80;;
75854;SDS011;64502;59.976;30.316;2023-04-15T02:48:43;1.48;;;0.50;;
75854;SDS011;64502;59.976;30.316;2023-04-15T02:51:13;1.88;;;0.60;;
75854;SDS011;64502;59.976;30.316;2023-04-15T02:53:39;3.28;;;1.10;;
75854;SDS011;64502;59.976;30.316;2023-04-15T02:56:05;2.35;;;0.80;;
75854;SDS011;64502;59.976;30.316;2023-04-15T02:58:31;3.25;;;0.80;;
75854;SDS011;64502;59.976;30.316;2023-04-15T03:00:58;2.65;;;1.10;;
75854;SDS011;64502;59.976;30.316;2023-04-15T03:03:24;3.63;;;0.60;;
75854;SDS011;64502;59.976;30.316;2023-04-15T03:05:50;2.65;;;1.10;;
75854;SDS011;64502;59.976;30.316;2023-04-15T03:08:16;2.85;;;0.57;;
75854;SDS011;64502;59.976;30.316;2023-04-15T03:10:41;1.73;;;0.20;;
75854;SDS011;64502;59.976;30.316;2023-04-15T03:13:06;3.22;;;0.63;;
75854;SDS011;64502;59.976;30.316;2023-04-15T03:15:32;2.50;;;0.88;;
75854;SDS011;64502;59.976;30.316;2023-04-15T03:17:58;3.72;;;0.95;;
75854;SDS011;64502;59.976;30.316;2023-04-15T03:20:23;3.17;;;0.70;;
75854;SDS011;64502;59.976;30.316;2023-04-15T03:22:49;3.20;;;0.50;;
75854;SDS011;64502;59.976;30.316;2023-04-15T03:25:14;3.58;;;1.08;;
75854;SDS011;64502;59.976;30.316;2023-04-15T03:27:40;5.50;;;0.88;;
75854;SDS011;64502;59.976;30.316;2023-04-15T03:30:06;5.18;;;1.23;;
75854;SDS011;64502;59.976;30.316;2023-04-15T03:32:33;4.53;;;0.52;;
75854;SDS011;64502;59.976;30.316;2023-04-15T03:34:58;2.67;;;0.70;;
75854;SDS011;64502;59.976;30.316;2023-04-15T03:37:23;4.55;;;0.85;;
75854;SDS011;64502;59.976;30.316;2023-04-15T03:39:49;2.17;;;1.02;;
75854;SDS011;64502;59.976;30.316;2023-04-15T03:42:15;4.72;;;0.90;;
75854;SDS011;64502;59.976;30.316;2023-04-15T03:44:40;4.85;;;0.70;;
75854;SDS011;64502;59.976;30.316;2023-04-15T03:47:06;2.05;;;0.60;;
75854;SDS011;64502;59.976;30.316;2023-04-15T03:49:31;4.38;;;1.08;;
75854;SDS011;64502;59.976;30.316;2023-04-15T03:51:57;3.38;;;0.82;;
75854;SDS011;64502;59.976;30.316;2023-04-15T03:54:23;3.53;;;1.00;;
75854;SDS011;64502;59.976;30.316;2023-04-15T03:56:49;3.60;;;1.05;;
75854;SDS011;64502;59.976;30.316;2023-04-15T03:59:15;3.35;;;0.85;;
75854;SDS011;64502;59.976;30.316;2023-04-15T04:01:40;4.50;;;1.25;;
75854;SDS011;64502;59.976;30.316;2023-04-15T04:04:06;6.28;;;1.45;;
75854;SDS011;64502;59.976;30.316;2023-04-15T04:06:31;5.43;;;1.25;;
75854;SDS011;64502;59.976;30.316;2023-04-15T04:08:57;3.95;;;1.00;;
75854;SDS011;64502;59.976;30.316;2023-04-15T04:11:22;6.30;;;0.93;;
75854;SDS011;64502;59.976;30.316;2023-04-15T04:13:48;4.57;;;0.60;;
75854;SDS011;64502;59.976;30.316;2023-04-15T04:16:13;2.45;;;1.00;;
75854;SDS011;64502;59.976;30.316;2023-04-15T04:18:38;4.05;;;0.63;;
75854;SDS011;64502;59.976;30.316;2023-04-15T04:21:04;7.22;;;0.80;;
75854;SDS011;64502;59.976;30.316;2023-04-15T04:23:30;2.55;;;1.25;;
75854;SDS011;64502;59.976;30.316;2023-04-15T04:25:55;4.60;;;0.95;;
75854;SDS011;64502;59.976;30.316;2023-04-15T04:28:20;6.35;;;1.25;;
75854;SDS011;64502;59.976;30.316;2023-04-15T04:30:46;2.67;;;0.70;;
75854;SDS011;64502;59.976;30.316;2023-04-15T04:33:11;4.00;;;0.88;;
75854;SDS011;64502;59.976;30.316;2023-04-15T04:35:37;5.60;;;0.75;;
75854;SDS011;64502;59.976;30.316;2023-04-15T04:38:03;2.95;;;0.80;;
75854;SDS011;64502;59.976;30.316;2023-04-15T04:40:28;5.05;;;1.00;;
75854;SDS011;64502;59.976;30.316;2023-04-15T04:42:54;4.03;;;1.00;;
75854;SDS011;64502;59.976;30.316;2023-04-15T04:45:20;1.88;;;0.68;;
75854;SDS011;64502;59.976;30.316;2023-04-15T04:47:45;5.03;;;1.38;;
75854;SDS011;64502;59.976;30.316;2023-04-15T04:50:11;5.30;;;1.40;;
75854;SDS011;64502;59.976;30.316;2023-04-15T04:52:37;3.92;;;1.50;;
75854;SDS011;64502;59.976;30.316;2023-04-15T04:55:03;6.22;;;1.58;;
75854;SDS011;64502;59.976;30.316;2023-04-15T04:57:29;3.70;;;1.15;;
75854;SDS011;64502;59.976;30.316;2023-04-15T04:59:54;5.70;;;1.30;;
75854;SDS011;64502;59.976;30.316;2023-04-15T05:02:20;3.15;;;1.02;;
75854;SDS011;64502;59.976;30.316;2023-04-15T05:04:46;2.72;;;0.98;;
75854;SDS011;64502;59.976;30.316;2023-04-15T05:07:11;4.15;;;0.75;;
75854;SDS011;64502;59.976;30.316;2023-04-15T05:09:37;3.75;;;0.82;;
75854;SDS011;64502;59.976;30.316;2023-04-15T05:12:03;4.40;;;0.82;;
75854;SDS011;64502;59.976;30.316;2023-04-15T05:14:28;2.33;;;1.08;;
75854;SDS011;64502;59.976;30.316;2023-04-15T05:16:54;4.07;;;1.20;;
75854;SDS011;64502;59.976;30.316;2023-04-15T05:19:20;3.70;;;1.00;;
75854;SDS011;64502;59.976;30.316;2023-04-15T05:21:45;7.93;;;1.27;;
75854;SDS011;64502;59.976;30.316;2023-04-15T05:24:11;3.03;;;1.17;;
75854;SDS011;64502;59.976;30.316;2023-04-15T05:26:36;4.38;;;1.48;;
75854;SDS011;64502;59.976;30.316;2023-04-15T05:29:02;6.85;;;1.63;;
75854;SDS011;64502;59.976;30.316;2023-04-15T05:31:27;14.13;;;1.35;;
75854;SDS011;64502;59.976;30.316;2023-04-15T05:33:53;3.63;;;1.35;;
75854;SDS011;64502;59.976;30.316;2023-04-15T05:36:18;4.22;;;1.42;;
75854;SDS011;64502;59.976;30.316;2023-04-15T05:38:44;2.85;;;1.15;;
75854;SDS011;64502;59.976;30.316;2023-04-15T05:41:09;6.72;;;1.48;;
75854;SDS011;64502;59.976;30.316;2023-04-15T05:43:35;5.47;;;1.23;;
75854;SDS011;64502;59.976;30.316;2023-04-15T05:46:00;2.72;;;0.90;;
75854;SDS011;64502;59.976;30.316;2023-04-15T05:48:26;7.65;;;1.35;;
75854;SDS011;64502;59.976;30.316;2023-04-15T05:50:51;4.55;;;0.77;;
75854;SDS011;64502;59.976;30.316;2023-04-15T05:53:17;2.38;;;0.95;;
75854;SDS011;64502;59.976;30.316;2023-04-15T05:55:42;3.20;;;0.80;;
75854;SDS011;64502;59.976;30.316;2023-04-15T05:58:08;8.48;;;1.92;;
75854;SDS011;64502;59.976;30.316;2023-04-15T06:00:33;3.40;;;1.02;;
75854;SDS011;64502;59.976;30.316;2023-04-15T06:02:58;3.95;;;1.25;;
75854;SDS011;64502;59.976;30.316;2023-04-15T06:05:24;4.32;;;1.02;;
75854;SDS011;64502;59.976;30.316;2023-04-15T06:07:50;7.10;;;1.45;;
75854;SDS011;64502;59.976;30.316;2023-04-15T06:10:17;3.47;;;1.05;;
75854;SDS011;64502;59.976;30.316;2023-04-15T06:12:42;6.70;;;1.77;;
75854;SDS011;64502;59.976;30.316;2023-04-15T06:15:08;10.23;;;0.95;;
75854;SDS011;64502;59.976;30.316;2023-04-15T06:17:36;6.30;;;1.45;;
75854;SDS011;64502;59.976;30.316;2023-04-15T06:20:02;6.85;;;1.13;;
75854;SDS011;64502;59.976;30.316;2023-04-15T06:22:28;6.32;;;1.27;;
75854;SDS011;64502;59.976;30.316;2023-04-15T06:24:53;4.80;;;0.60;;
75854;SDS011;64502;59.976;30.316;2023-04-15T06:27:19;9.55;;;2.10;;
75854;SDS011;64502;59.976;30.316;2023-04-15T06:29:44;3.53;;;1.40;;
75854;SDS011;64502;59.976;30.316;2023-04-15T06:32:10;4.63;;;1.02;;
75854;SDS011;64502;59.976;30.316;2023-04-15T06:34:36;3.65;;;0.98;;
75854;SDS011;64502;59.976;30.316;2023-04-15T06:37:01;2.35;;;0.80;;
75854;SDS011;64502;59.976;30.316;2023-04-15T06:39:27;6.13;;;0.90;;
75854;SDS011;64502;59.976;30.316;2023-04-15T06:41:52;2.53;;;0.80;;
75854;SDS011;64502;59.976;30.316;2023-04-15T06:44:18;7.30;;;1.30;;
75854;SDS011;64502;59.976;30.316;2023-04-15T06:46:43;3.13;;;0.68;;
75854;SDS011;64502;59.976;30.316;2023-04-15T06:49:09;3.72;;;0.70;;
75854;SDS011;64502;59.976;30.316;2023-04-15T06:51:35;6.00;;;0.88;;
75854;SDS011;64502;59.976;30.316;2023-04-15T06:54:01;4.85;;;1.45;;
75854;SDS011;64502;59.976;30.316;2023-04-15T06:56:29;7.43;;;0.93;;
75854;SDS011;64502;59.976;30.316;2023-04-15T06:58:56;2.58;;;0.70;;
75854;SDS011;64502;59.976;30.316;2023-04-15T07:01:21;5.90;;;1.33;;
75854;SDS011;64502;59.976;30.316;2023-04-15T07:03:47;6.35;;;0.98;;
75854;SDS011;64502;59.976;30.316;2023-04-15T07:06:12;3.45;;;0.73;;
75854;SDS011;64502;59.976;30.316;2023-04-15T07:08:38;4.57;;;0.75;;
75854;SDS011;64502;59.976;30.316;2023-04-15T07:11:03;5.30;;;1.13;;
75854;SDS011;64502;59.976;30.316;2023-04-15T07:13:30;5.95;;;0.95;;
75854;SDS011;64502;59.976;30.316;2023-04-15T07:15:56;4.18;;;1.58;;
75854;SDS011;64502;59.976;30.316;2023-04-15T07:18:22;10.07;;;1.10;;
75854;SDS011;64502;59.976;30.316;2023-04-15T07:20:47;5.15;;;1.30;;
75854;SDS011;64502;59.976;30.316;2023-04-15T07:23:13;4.60;;;1.42;;
75854;SDS011;64502;59.976;30.316;2023-04-15T07:25:38;2.35;;;0.90;;
75854;SDS011;64502;59.976;30.316;2023-04-15T07:28:04;5.65;;;0.95;;
75854;SDS011;64502;59.976;30.316;2023-04-15T07:30:29;8.13;;;1.02;;
75854;SDS011;64502;59.976;30.316;2023-04-15T07:32:55;3.88;;;1.30;;
75854;SDS011;64502;59.976;30.316;2023-04-15T07:35:22;4.70;;;1.20;;
75854;SDS011;64502;59.976;30.316;2023-04-15T07:37:49;7.22;;;1.33;;
75854;SDS011;64502;59.976;30.316;2023-04-15T07:40:15;3.95;;;1.20;;
75854;SDS011;64502;59.976;30.316;2023-04-15T07:42:41;6.65;;;1.20;;
75854;SDS011;64502;59.976;30.316;2023-04-15T07:45:07;3.85;;;0.93;;
75854;SDS011;64502;59.976;30.316;2023-04-15T07:47:33;4.60;;;1.35;;
75854;SDS011;64502;59.976;30.316;2023-04-15T07:49:59;8.60;;;1.00;;
75854;SDS011;64502;59.976;30.316;2023-04-15T07:52:26;10.15;;;1.70;;
75854;SDS011;64502;59.976;30.316;2023-04-15T07:54:51;4.78;;;0.77;;
75854;SDS011;64502;59.976;30.316;2023-04-15T07:57:17;4.97;;;1.60;;
75854;SDS011;64502;59.976;30.316;2023-04-15T07:59:42;7.57;;;1.85;;
75854;SDS011;64502;59.976;30.316;2023-04-15T08:02:08;17.55;;;2.30;;
75854;SDS011;64502;59.976;30.316;2023-04-15T08:04:35;9.27;;;1.48;;
75854;SDS011;64502;59.976;30.316;2023-04-15T08:07:01;10.30;;;2.63;;
75854;SDS011;64502;59.976;30.316;2023-04-15T08:09:28;6.45;;;1.98;;
75854;SDS011;64502;59.976;30.316;2023-04-15T08:11:53;5.93;;;1.10;;
75854;SDS011;64502;59.976;30.316;2023-04-15T08:14:20;7.25;;;1.20;;
75854;SDS011;64502;59.976;30.316;2023-04-15T08:16:46;8.05;;;1.55;;
75854;SDS011;64502;59.976;30.316;2023-04-15T08:19:12;9.02;;;2.65;;
75854;SDS011;64502;59.976;30.316;2023-04-15T08:21:37;7.63;;;1.48;;
75854;SDS011;64502;59.976;30.316;2023-04-15T08:24:03;6.22;;;1.60;;
75854;SDS011;64502;59.976;30.316;2023-04-15T08:26:30;10.35;;;2.08;;
75854;SDS011;64502;59.976;30.316;2023-04-15T08:28:55;9.55;;;1.48;;
75854;SDS011;64502;59.976;30.316;2023-04-15T08:31:21;6.53;;;1.90;;
75854;SDS011;64502;59.976;30.316;2023-04-15T08:33:47;17.00;;;2.00;;
75854;SDS011;64502;59.976;30.316;2023-04-15T08:36:12;5.47;;;1.58;;
75854;SDS011;64502;59.976;30.316;2023-04-15T08:38:38;7.57;;;0.80;;
75854;SDS011;64502;59.976;30.316;2023-04-15T08:41:25;3.83;;;1.48;;
75854;SDS011;64502;59.976;30.316;2023-04-15T08:43:52;3.90;;;1.27;;
75854;SDS011;64502;59.976;30.316;2023-04-15T08:46:22;8.25;;;2.25;;
75854;SDS011;64502;59.976;30.316;2023-04-15T08:48:47;7.22;;;1.70;;
75854;SDS011;64502;59.976;30.316;2023-04-15T08:51:14;4.68;;;1.38;;
75854;SDS011;64502;59.976;30.316;2023-04-15T08:53:41;4.25;;;1.60;;
75854;SDS011;64502;59.976;30.316;2023-04-15T08:56:08;5.15;;;1.25;;
75854;SDS011;64502;59.976;30.316;2023-04-15T08:58:36;4.35;;;1.25;;
75854;SDS011;64502;59.976;30.316;2023-04-15T09:01:02;8.55;;;2.15;;
75854;SDS011;64502;59.976;30.316;2023-04-15T09:03:28;3.47;;;1.20;;
75854;SDS011;64502;59.976;30.316;2023-04-15T09:05:54;8.70;;;1.35;;
75854;SDS011;64502;59.976;30.316;2023-04-15T09:08:21;14.02;;;1.65;;
75854;SDS011;64502;59.976;30.316;2023-04-15T09:10:46;12.40;;;1.63;;
75854;SDS011;64502;59.976;30.316;2023-04-15T09:13:12;6.95;;;1.40;;
75854;SDS011;64502;59.976;30.316;2023-04-15T09:15:38;7.43;;;1.60;;
75854;SDS011;64502;59.976;30.316;2023-04-15T09:18:03;6.18;;;1.92;;
75854;SDS011;64502;59.976;30.316;2023-04-15T09:20:30;7.65;;;1.50;;
75854;SDS011;64502;59.976;30.316;2023-04-15T09:23:10;4.40;;;1.35;;
75854;SDS011;64502;59.976;30.316;2023-04-15T09:25:38;5.55;;;1.92;;
75854;SDS011;64502;59.976;30.316;2023-04-15T09:28:04;8.35;;;1.70;;
75854;SDS011;64502;59.976;30.316;2023-04-15T09:30:30;6.25;;;1.77;;
75854;SDS011;64502;59.976;30.316;2023-04-15T09:32:59;3.90;;;1.60;;
75854;SDS011;64502;59.976;30.316;2023-04-15T09:35:32;4.40;;;1.33;;
75854;SDS011;64502;59.976;30.316;2023-04-15T09:38:03;7.68;;;2.00;;
75854;SDS011;64502;59.976;30.316;2023-04-15T09:40:34;9.32;;;2.30;;
75854;SDS011;64502;59.976;30.316;2023-04-15T09:43:04;3.63;;;1.63;;
75854;SDS011;64502;59.976;30.316;2023-04-15T09:45:31;10.43;;;2.03;;
75854;SDS011;64502;59.976;30.316;2023-04-15T09:47:58;7.50;;;1.65;;
75854;SDS011;64502;59.976;30.316;2023-04-15T09:50:27;5.70;;;1.75;;
75854;SDS011;64502;59.976;30.316;2023-04-15T09:52:53;8.95;;;1.77;;
75854;SDS011;64502;59.976;30.316;2023-04-15T09:55:19;8.90;;;1.70;;
75854;SDS011;64502;59.976;30.316;2023-04-15T09:57:45;6.72;;;1.38;;
75854;SDS011;64502;59.976;30.316;2023-04-15T10:00:12;7.10;;;1.40;;
75854;SDS011;64502;59.976;30.316;2023-04-15T10:02:39;7.25;;;1.63;;
75854;SDS011;64502;59.976;30.316;2023-04-15T10:05:09;10.65;;;1.83;;
75854;SDS011;64502;59.976;30.316;2023-04-15T10:07:36;11.65;;;1.42;;
75854;SDS011;64502;59.976;30.316;2023-04-15T10:10:02;4.80;;;1.45;;
75854;SDS011;64502;59.976;30.316;2023-04-15T10:12:29;6.13;;;1.67;;
75854;SDS011;64502;59.976;30.316;2023-04-15T10:14:57;8.88;;;1.80;;
75854;SDS011;64502;59.976;30.316;2023-04-15T10:17:25;11.05;;;1.80;;
75854;SDS011;64502;59.976;30.316;2023-04-15T10:19:59;12.23;;;1.90;;
75854;SDS011;64502;59.976;30.316;2023-04-15T10:22:26;10.32;;;1.60;;
75854;SDS011;64502;59.976;30.316;2023-04-15T10:24:52;6.85;;;2.00;;
75854;SDS011;64502;59.976;30.316;2023-04-15T10:27:20;9.48;;;1.80;;
75854;SDS011;64502;59.976;30.316;2023-04-15T10:29:47;8.88;;;2.30;;
75854;SDS011;64502;59.976;30.316;2023-04-15T10:32:13;6.18;;;1.73;;
75854;SDS011;64502;59.976;30.316;2023-04-15T10:34:40;10.43;;;1.67;;
75854;SDS011;64502;59.976;30.316;2023-04-15T10:37:08;5.03;;;1.63;;
75854;SDS011;64502;59.976;30.316;2023-04-15T10:42:13;10.63;;;2.33;;
75854;SDS011;64502;59.976;30.316;2023-04-15T10:44:41;7.15;;;1.90;;
75854;SDS011;64502;59.976;30.316;2023-04-15T10:47:09;5.53;;;1.58;;
75854;SDS011;64502;59.976;30.316;2023-04-15T10:49:43;15.75;;;3.33;;
75854;SDS011;64502;59.976;30.316;2023-04-15T10:52:10;9.25;;;2.25;;
75854;SDS011;64502;59.976;30.316;2023-04-15T10:54:36;6.63;;;1.70;;
75854;SDS011;64502;59.976;30.316;2023-04-15T10:59:33;14.95;;;1.58;;
75854;SDS011;64502;59.976;30.316;2023-04-15T11:02:02;16.23;;;3.08;;
75854;SDS011;64502;59.976;30.316;2023-04-15T11:07:34;12.13;;;1.50;;
75854;SDS011;64502;59.976;30.316;2023-04-15T11:12:50;10.43;;;1.80;;
75854;SDS011;64502;59.976;30.316;2023-04-15T11:18:08;19.67;;;2.20;;
75854;SDS011;64502;59.976;30.316;2023-04-15T11:20:34;9.68;;;1.55;;
75854;SDS011;64502;59.976;30.316;2023-04-15T11:23:00;10.73;;;1.67;;
75854;SDS011;64502;59.976;30.316;2023-04-15T11:25:29;7.35;;;1.35;;
75854;SDS011;64502;59.976;30.316;2023-04-15T11:27:57;4.10;;;1.30;;
75854;SDS011;64502;59.976;30.316;2023-04-15T11:30:24;3.88;;;2.05;;
75854;SDS011;64502;59.976;30.316;2023-04-15T11:32:52;8.10;;;1.40;;
75854;SDS011;64502;59.976;30.316;2023-04-15T11:35:19;6.15;;;1.25;;
75854;SDS011;64502;59.976;30.316;2023-04-15T11:37:46;9.38;;;1.98;;
75854;SDS011;64502;59.976;30.316;2023-04-15T11:40:13;14.98;;;2.20;;
75854;SDS011;64502;59.976;30.316;2023-04-15T11:42:41;50.55;;;4.55;;
75854;SDS011;64502;59.976;30.316;2023-04-15T11:45:10;28.95;;;2.35;;
75854;SDS011;64502;59.976;30.316;2023-04-15T11:47:37;13.07;;;1.63;;
75854;SDS011;64502;59.976;30.316;2023-04-15T11:50:13;14.35;;;1.75;;
75854;SDS011;64502;59.976;30.316;2023-04-15T11:52:53;12.43;;;2.25;;
75854;SDS011;64502;59.976;30.316;2023-04-15T11:55:27;8.90;;;1.52;;
75854;SDS011;64502;59.976;30.316;2023-04-15T11:58:09;3.70;;;1.50;;
75854;SDS011;64502;59.976;30.316;2023-04-15T12:00:38;10.90;;;1.30;;
75854;SDS011;64502;59.976;30.316;2023-04-15T12:03:17;9.25;;;1.40;;
75854;SDS011;64502;59.976;30.316;2023-04-15T12:06:02;5.70;;;1.40;;
75854;SDS011;64502;59.976;30.316;2023-04-15T12:11:13;7.47;;;1.30;;
75854;SDS011;64502;59.976;30.316;2023-04-15T12:13:43;9.20;;;1.40;;
75854;SDS011;64502;59.976;30.316;2023-04-15T12:16:10;7.78;;;1.20;;
75854;SDS011;64502;59.976;30.316;2023-04-15T12:18:39;8.57;;;1.52;;
75854;SDS011;64502;59.976;30.316;2023-04-15T12:21:08;7.78;;;1.08;;
75854;SDS011;64502;59.976;30.316;2023-04-15T12:23:38;6.78;;;1.50;;
75854;SDS011;64502;59.976;30.316;2023-04-15T12:26:11;10.15;;;1.77;;
75854;SDS011;64502;59.976;30.316;2023-04-15T12:28:39;7.97;;;2.05;;
75854;SDS011;64502;59.976;30.316;2023-04-15T12:31:10;4.30;;;1.42;;
75854;SDS011;64502;59.976;30.316;2023-04-15T12:33:37;6.50;;;1.90;;
75854;SDS011;64502;59.976;30.316;2023-04-15T12:36:02;6.65;;;1.50;;
75854;SDS011;64502;59.976;30.316;2023-04-15T12:38:28;8.00;;;1.85;;
75854;SDS011;64502;59.976;30.316;2023-04-15T12:40:55;4.80;;;1.33;;
75854;SDS011;64502;59.976;30.316;2023-04-15T12:43:20;8.07;;;1.70;;
75854;SDS011;64502;59.976;30.316;2023-04-15T12:45:46;6.78;;;1.40;;
75854;SDS011;64502;59.976;30.316;2023-04-15T12:48:13;4.38;;;1.40;;
75854;SDS011;64502;59.976;30.316;2023-04-15T12:50:38;6.68;;;1.67;;
75854;SDS011;64502;59.976;30.316;2023-04-15T12:53:04;12.32;;;1.98;;
75854;SDS011;64502;59.976;30.316;2023-04-15T12:55:29;8.82;;;1.73;;
75854;SDS011;64502;59.976;30.316;2023-04-15T12:57:56;4.25;;;1.25;;
75854;SDS011;64502;59.976;30.316;2023-04-15T13:00:21;5.63;;;1.38;;
75854;SDS011;64502;59.976;30.316;2023-04-15T13:02:47;5.07;;;1.42;;
75854;SDS011;64502;59.976;30.316;2023-04-15T13:05:13;8.82;;;1.67;;
75854;SDS011;64502;59.976;30.316;2023-04-15T13:07:39;7.75;;;1.35;;
75854;SDS011;64502;59.976;30.316;2023-04-15T13:10:06;9.02;;;1.40;;
75854;SDS011;64502;59.976;30.316;2023-04-15T13:12:31;10.65;;;2.05;;
75854;SDS011;64502;59.976;30.316;2023-04-15T13:15:00;22.55;;;2.67;;
75854;SDS011;64502;59.976;30.316;2023-04-15T13:17:26;13.43;;;1.58;;
75854;SDS011;64502;59.976;30.316;2023-04-15T13:19:51;8.32;;;1.60;;
75854;SDS011;64502;59.976;30.316;2023-04-15T13:22:17;6.20;;;1.45;;
75854;SDS011;64502;59.976;30.316;2023-04-15T13:24:43;4.13;;;1.73;;
75854;SDS011;64502;59.976;30.316;2023-04-15T13:27:08;7.47;;;1.45;;
75854;SDS011;64502;59.976;30.316;2023-04-15T13:29:34;5.47;;;1.48;;
75854;SDS011;64502;59.976;30.316;2023-04-15T13:31:59;9.70;;;2.05;;
75854;SDS011;64502;59.976;30.316;2023-04-15T13:34:25;9.48;;;2.00;;
75854;SDS011;64502;59.976;30.316;2023-04-15T13:36:50;13.65;;;2.50;;
75854;SDS011;64502;59.976;30.316;2023-04-15T13:39:16;9.00;;;2.30;;
75854;SDS011;64502;59.976;30.316;2023-04-15T13:41:41;8.52;;;2.20;;
75854;SDS011;64502;59.976;30.316;2023-04-15T13:44:07;9.52;;;1.90;;
75854;SDS011;64502;59.976;30.316;2023-04-15T13:46:32;4.85;;;2.05;;
75854;SDS011;64502;59.976;30.316;2023-04-15T13:48:58;10.18;;;2.70;;
75854;SDS011;64502;59.976;30.316;2023-04-15T13:51:23;12.52;;;1.55;;
75854;SDS011;64502;59.976;30.316;2023-04-15T13:53:49;9.30;;;2.08;;
75854;SDS011;64502;59.976;30.316;2023-04-15T13:56:14;11.48;;;2.10;;
75854;SDS011;64502;59.976;30.316;2023-04-15T13:58:40;10.10;;;2.15;;
75854;SDS011;64502;59.976;30.316;2023-04-15T14:01:06;9.60;;;2.72;;
75854;SDS011;64502;59.976;30.316;2023-04-15T14:03:33;6.72;;;2.25;;
75854;SDS011;64502;59.976;30.316;2023-04-15T14:05:59;6.93;;;1.85;;
75854;SDS011;64502;59.976;30.316;2023-04-15T14:08:24;10.40;;;3.45;;
75854;SDS011;64502;59.976;30.316;2023-04-15T14:10:50;8.07;;;2.92;;
75854;SDS011;64502;59.976;30.316;2023-04-15T14:13:15;7.75;;;2.58;;
75854;SDS011;64502;59.976;30.316;2023-04-15T14:15:40;8.05;;;2.05;;
75854;SDS011;64502;59.976;30.316;2023-04-15T14:18:06;9.05;;;2.95;;
75854;SDS011;64502;59.976;30.316;2023-04-15T14:20:32;8.07;;;2.20;;
75854;SDS011;64502;59.976;30.316;2023-04-15T14:22:57;5.53;;;1.65;;
75854;SDS011;64502;59.976;30.316;2023-04-15T14:25:23;8.27;;;2.40;;
75854;SDS011;64502;59.976;30.316;2023-04-15T14:27:48;9.80;;;3.13;;
75854;SDS011;64502;59.976;30.316;2023-04-15T14:30:15;7.57;;;1.95;;
75854;SDS011;64502;59.976;30.316;2023-04-15T14:32:40;5.00;;;2.10;;
75854;SDS011;64502;59.976;30.316;2023-04-15T14:35:06;7.18;;;2.97;;
75854;SDS011;64502;59.976;30.316;2023-04-15T14:37:31;11.23;;;2.95;;
75854;SDS011;64502;59.976;30.316;2023-04-15T14:39:57;7.45;;;2.45;;
75854;SDS011;64502;59.976;30.316;2023-04-15T14:42:24;7.38;;;2.45;;
75854;SDS011;64502;59.976;30.316;2023-04-15T14:44:49;6.45;;;1.92;;